| time (UTC) | temp F | wind direction | speed MPH | gust MPH | rain 1hr in | rain 24hr in | rain mn in | humidity % | barometer mb |
| 20260509053020 | 59 | 189 | 2.0 | 5.0 | 0.00 | 0.00 | 0.00 | 78 | 1009.6 |
| 20260509053015 | 59 | 201 | 2.0 | 9.0 | 0.00 | 0.00 | 0.00 | 78 | 1011.4 |
| 20260509051514 | 59 | 212 | 4.0 | 9.0 | 0.00 | 0.00 | 0.00 | 78 | 1009.7 |
| 20260509050020 | 59 | 184 | 1.0 | 7.0 | 0.00 | 0.00 | 0.00 | 77 | 1011.0 |
| 20260509050012 | 59 | 200 | 2.0 | 6.0 | 0.00 | 0.00 | 0.00 | 77 | 1009.1 |
| 20260509044513 | 59 | 176 | 1.0 | 4.0 | 0.00 | 0.00 | 0.00 | 76 | 1009.6 |
| 20260509043015 | 59 | 193 | 2.0 | 8.0 | 0.00 | 0.00 | 0.00 | 74 | 1011.5 |
| 20260509043011 | 59 | 193 | 2.0 | 4.0 | 0.00 | 0.00 | 0.00 | 74 | 1009.7 |
| 20260509041511 | 60 | 181 | 3.0 | 7.0 | 0.00 | 0.00 | 0.00 | 74 | 1009.4 |
| 20260509040015 | 60 | 196 | 2.0 | 8.0 | 0.00 | 0.00 | 0.00 | 73 | 1011.3 |
| 20260509040011 | 60 | 193 | 1.0 | 4.0 | 0.00 | 0.00 | 0.00 | 73 | 1009.3 |
| 20260509034511 | 60 | 194 | 2.0 | 5.0 | 0.00 | 0.00 | 0.00 | 73 | 1009.4 |
| 20260509033015 | 60 | 183 | 2.0 | 6.0 | 0.00 | 0.00 | 0.00 | 74 | 1011.1 |
| 20260509033011 | 59 | 168 | 2.0 | 5.0 | 0.00 | 0.00 | 0.00 | 74 | 1009.3 |
| 20260509031509 | 58 | 189 | 2.0 | 4.0 | 0.00 | 0.00 | 0.00 | 77 | 1009.5 |
| 20260509030015 | 57 | 0.0 | 0.0 | 0.00 | 0.00 | 0.00 | 81 | 1011.6 | |
| 20260509030008 | 57 | 204 | 0.0 | 0.0 | 0.00 | 0.00 | 0.00 | 81 | 1009.8 |
| 20260509024512 | 58 | 204 | 0.0 | 0.0 | 0.00 | 0.00 | 0.00 | 80 | 1009.2 |
| 20260509023017 | 58 | 0.0 | 0.0 | 0.00 | 0.00 | 0.00 | 80 | 1011.3 | |
| 20260509023008 | 58 | 204 | 0.0 | 0.0 | 0.00 | 0.00 | 0.00 | 80 | 1009.3 |
| 20260509021507 | 58 | 204 | 0.0 | 0.0 | 0.00 | 0.00 | 0.00 | 80 | 1009.1 |
| 20260509020037 | 58 | 0.0 | 0.0 | 0.00 | 0.00 | 0.00 | 79 | 1011.0 | |
| 20260509020005 | 58 | 204 | 0.0 | 0.0 | 0.00 | 0.00 | 0.00 | 79 | 1009.2 |
| 20260509014512 | 59 | 204 | 0.0 | 0.0 | 0.00 | 0.00 | 0.00 | 79 | 1009.2 |
| 20260509013021 | 60 | 0.0 | 0.0 | 0.00 | 0.00 | 0.00 | 77 | 1011.0 | |
| 20260509013004 | 60 | 204 | 0.0 | 0.0 | 0.00 | 0.00 | 0.00 | 77 | 1009.3 |
| 20260509011503 | 62 | 204 | 0.0 | 0.0 | 0.00 | 0.00 | 0.00 | 75 | 1009.3 |
| 20260509010017 | 64 | 0.0 | 0.0 | 0.00 | 0.00 | 0.00 | 72 | 1011.1 | |
| 20260509010003 | 64 | 204 | 0.0 | 0.0 | 0.00 | 0.00 | 0.00 | 72 | 1009.4 |
| 20260509004501 | 66 | 204 | 0.0 | 0.0 | 0.00 | 0.00 | 0.00 | 68 | 1009.3 |
| 20260509003100 | 67 | 204 | 0.0 | 0.0 | 0.00 | 0.00 | 0.00 | 65 | 1009.4 |
| 20260509003037 | 68 | 0.0 | 3.0 | 0.00 | 0.00 | 0.00 | 65 | 1011.2 | |
| 20260509001559 | 69 | 204 | 0.0 | 0.0 | 0.00 | 0.00 | 0.00 | 62 | 1009.4 |
| 20260509000057 | 71 | 204 | 0.0 | 0.0 | 0.00 | 0.00 | 0.00 | 58 | 1009.5 |
| 20260509000016 | 71 | 203 | 0.0 | 6.0 | 0.00 | 0.00 | 0.00 | 57 | 1011.1 |
| 20260508234557 | 71 | 204 | 1.0 | 3.0 | 0.00 | 0.00 | 0.00 | 54 | 1009.7 |
| 20260508233053 | 71 | 204 | 1.0 | 4.0 | 0.00 | 0.00 | 0.00 | 54 | 1010.0 |
| 20260508233017 | 71 | 207 | 2.0 | 9.0 | 0.00 | 0.00 | 0.00 | 53 | 1011.6 |
| 20260508231552 | 72 | 215 | 2.0 | 5.0 | 0.00 | 0.00 | 0.00 | 51 | 1010.0 |
| 20260508230049 | 72 | 209 | 2.0 | 4.0 | 0.00 | 0.00 | 0.00 | 51 | 1010.2 |
| 20260508230017 | 72 | 194 | 3.0 | 9.0 | 0.00 | 0.00 | 0.00 | 51 | 1012.0 |
| 20260508224549 | 72 | 214 | 4.0 | 9.0 | 0.00 | 0.00 | 0.00 | 49 | 1010.4 |
| 20260508223047 | 72 | 160 | 2.0 | 6.0 | 0.00 | 0.00 | 0.00 | 51 | 1010.4 |
| 20260508223016 | 72 | 179 | 2.0 | 8.0 | 0.00 | 0.00 | 0.00 | 51 | 1012.2 |
| 20260508221544 | 72 | 156 | 2.0 | 6.0 | 0.00 | 0.00 | 0.00 | 52 | 1010.3 |
| 20260508220042 | 72 | 224 | 3.0 | 8.0 | 0.00 | 0.00 | 0.00 | 50 | 1010.4 |
| 20260508220021 | 72 | 189 | 3.0 | 11.0 | 0.00 | 0.00 | 0.00 | 52 | 1012.2 |
| 20260508214541 | 72 | 193 | 3.0 | 7.0 | 0.00 | 0.00 | 0.00 | 49 | 1010.4 |
| 20260508213039 | 72 | 171 | 4.0 | 11.0 | 0.00 | 0.00 | 0.00 | 49 | 1010.5 |
| 20260508213016 | 72 | 188 | 5.0 | 11.0 | 0.00 | 0.00 | 0.00 | 49 | 1012.2 |
| 20260508211538 | 72 | 167 | 5.0 | 11.0 | 0.00 | 0.00 | 0.00 | 48 | 1010.6 |
| 20260508210035 | 72 | 194 | 3.0 | 10.0 | 0.00 | 0.00 | 0.00 | 51 | 1010.8 |
| 20260508210017 | 72 | 203 | 4.0 | 11.0 | 0.00 | 0.00 | 0.00 | 52 | 1012.4 |
| 20260508204535 | 72 | 183 | 6.0 | 11.0 | 0.00 | 0.00 | 0.00 | 48 | 1010.9 |
| 20260508203033 | 72 | 214 | 7.0 | 11.0 | 0.00 | 0.00 | 0.00 | 48 | 1011.1 |
| 20260508203016 | 72 | 202 | 5.0 | 11.0 | 0.00 | 0.00 | 0.00 | 48 | 1012.7 |
| 20260508201533 | 72 | 169 | 4.0 | 10.0 | 0.00 | 0.00 | 0.00 | 49 | 1011.2 |
| 20260508200030 | 72 | 212 | 4.0 | 9.0 | 0.00 | 0.00 | 0.00 | 47 | 1011.5 |
| 20260508200017 | 72 | 193 | 4.0 | 12.0 | 0.00 | 0.00 | 0.00 | 47 | 1013.1 |
| 20260508194523 | 72 | 195 | 6.0 | 11.0 | 0.00 | 0.00 | 0.00 | 47 | 1011.9 |
| 20260508193021 | 71 | 203 | 4.0 | 9.0 | 0.00 | 0.00 | 0.00 | 48 | 1012.1 |
| 20260508193016 | 71 | 180 | 5.0 | 12.0 | 0.00 | 0.00 | 0.00 | 48 | 1013.7 |
| 20260508191524 | 71 | 143 | 6.0 | 11.0 | 0.00 | 0.00 | 0.00 | 50 | 1012.3 |
| 20260508190017 | 71 | 191 | 5.0 | 13.0 | 0.00 | 0.00 | 0.00 | 50 | 1014.3 |
| 20260508190015 | 71 | 205 | 6.0 | 11.0 | 0.00 | 0.00 | 0.00 | 50 | 1012.6 |
| 20260508184513 | 71 | 217 | 5.0 | 10.0 | 0.00 | 0.00 | 0.00 | 48 | 1012.9 |
| 20260508183041 | 70 | 176 | 5.0 | 14.0 | 0.00 | 0.00 | 0.00 | 50 | 1014.7 |
| 20260508183009 | 70 | 160 | 6.0 | 12.0 | 0.00 | 0.00 | 0.00 | 50 | 1013.1 |
| 20260508181506 | 69 | 174 | 5.0 | 12.0 | 0.00 | 0.00 | 0.00 | 49 | 1013.2 |
| 20260508180016 | 69 | 167 | 5.0 | 14.0 | 0.00 | 0.00 | 0.00 | 51 | 1015.1 |
| 20260508180004 | 69 | 203 | 4.0 | 11.0 | 0.00 | 0.00 | 0.00 | 51 | 1013.5 |
| 20260508174502 | 69 | 153 | 5.0 | 10.0 | 0.00 | 0.00 | 0.00 | 49 | 1013.6 |
| 20260508173100 | 68 | 183 | 6.0 | 13.0 | 0.00 | 0.00 | 0.00 | 52 | 1014.0 |
| 20260508173036 | 68 | 186 | 6.0 | 18.0 | 0.00 | 0.00 | 0.00 | 54 | 1015.5 |
| 20260508171557 | 67 | 200 | 7.0 | 12.0 | 0.00 | 0.00 | 0.00 | 53 | 1014.4 |
| 20260508170053 | 67 | 193 | 6.0 | 13.0 | 0.00 | 0.00 | 0.00 | 54 | 1014.5 |
| 20260508170016 | 67 | 170 | 5.0 | 18.0 | 0.00 | 0.00 | 0.00 | 56 | 1016.2 |
| 20260508164550 | 67 | 127 | 3.0 | 17.0 | 0.00 | 0.00 | 0.00 | 58 | 1014.7 |
| 20260508163052 | 66 | 166 | 4.0 | 10.0 | 0.00 | 0.00 | 0.00 | 58 | 1015.0 |
| 20260508163016 | 66 | 192 | 4.0 | 11.0 | 0.00 | 0.00 | 0.00 | 58 | 1016.6 |
| 20260508161544 | 66 | 217 | 5.0 | 11.0 | 0.00 | 0.00 | 0.00 | 57 | 1015.1 |
| 20260508160041 | 65 | 207 | 6.0 | 9.0 | 0.00 | 0.00 | 0.00 | 57 | 1015.4 |
| 20260508160016 | 65 | 179 | 4.0 | 11.0 | 0.00 | 0.00 | 0.00 | 58 | 1017.0 |
| 20260508154538 | 64 | 162 | 5.0 | 11.0 | 0.00 | 0.00 | 0.00 | 56 | 1015.7 |
| 20260508153035 | 63 | 164 | 2.0 | 10.0 | 0.00 | 0.00 | 0.00 | 65 | 1015.9 |
| 20260508153016 | 63 | 188 | 4.0 | 11.0 | 0.00 | 0.00 | 0.00 | 65 | 1017.5 |
| 20260508151536 | 63 | 171 | 4.0 | 9.0 | 0.00 | 0.00 | 0.00 | 65 | 1016.1 |
| 20260508150033 | 62 | 172 | 3.0 | 6.0 | 0.00 | 0.00 | 0.00 | 66 | 1016.1 |
| 20260508150021 | 62 | 184 | 3.0 | 12.0 | 0.00 | 0.00 | 0.00 | 66 | 1017.7 |
| 20260508144525 | 61 | 186 | 4.0 | 9.0 | 0.00 | 0.00 | 0.00 | 67 | 1016.2 |
| 20260508143024 | 60 | 181 | 4.0 | 9.0 | 0.00 | 0.00 | 0.00 | 68 | 1016.3 |
| 20260508143016 | 59 | 201 | 4.0 | 12.0 | 0.00 | 0.00 | 0.00 | 68 | 1017.9 |
| 20260508141517 | 58 | 186 | 5.0 | 12.0 | 0.00 | 0.00 | 0.00 | 70 | 1016.5 |
| 20260508140016 | 58 | 179 | 3.0 | 11.0 | 0.00 | 0.00 | 0.00 | 74 | 1018.1 |
| 20260508140013 | 58 | 203 | 4.0 | 8.0 | 0.00 | 0.00 | 0.00 | 74 | 1016.6 |
| 20260508134512 | 56 | 165 | 2.0 | 6.0 | 0.00 | 0.00 | 0.00 | 77 | 1016.7 |
| 20260508133016 | 55 | 189 | 3.0 | 11.0 | 0.00 | 0.00 | 0.00 | 78 | 1018.1 |
| 20260508133006 | 55 | 168 | 5.0 | 10.0 | 0.00 | 0.00 | 0.00 | 78 | 1016.7 |
| 20260508131502 | 53 | 188 | 2.0 | 6.0 | 0.00 | 0.00 | 0.00 | 83 | 1016.8 |
| 20260508130058 | 52 | 169 | 3.0 | 9.0 | 0.00 | 0.00 | 0.00 | 84 | 1016.8 |
| 20260508130035 | 52 | 173 | 3.0 | 9.0 | 0.00 | 0.00 | 0.00 | 84 | 1018.2 |
| 20260508124559 | 51 | 174 | 3.0 | 7.0 | 0.00 | 0.00 | 0.00 | 89 | 1016.7 |
| 20260508123051 | 49 | 163 | 2.0 | 5.0 | 0.00 | 0.00 | 0.00 | 95 | 1016.6 |
| 20260508123015 | 49 | 166 | 2.0 | 7.0 | 0.00 | 0.00 | 0.00 | 95 | 1018.2 |
| 20260508121545 | 48 | 191 | 2.0 | 5.0 | 0.00 | 0.00 | 0.00 | 97 | 1016.6 |
| 20260508120041 | 46 | 148 | 0.0 | 3.0 | 0.00 | 0.00 | 0.00 | 97 | 1016.4 |
| 20260508120015 | 46 | 124 | 0.0 | 3.0 | 0.00 | 0.00 | 0.00 | 97 | 1017.8 |
| 20260508114539 | 44 | 115 | 1.0 | 3.0 | 0.00 | 0.00 | 0.00 | 97 | 1016.3 |
| 20260508113048 | 42 | 88 | 0.0 | 2.0 | 0.00 | 0.00 | 0.00 | 96 | 1016.2 |
| 20260508113020 | 42 | 91 | 0.0 | 3.0 | 0.00 | 0.00 | 0.00 | 96 | 1017.4 |
| 20260508111532 | 41 | 87 | 0.0 | 0.0 | 0.00 | 0.00 | 0.00 | 95 | 1015.9 |
| 20260508110031 | 40 | 87 | 0.0 | 3.0 | 0.00 | 0.00 | 0.00 | 95 | 1015.7 |
| 20260508110015 | 40 | 91 | 0.0 | 3.0 | 0.00 | 0.00 | 0.00 | 95 | 1017.0 |
| 20260508104529 | 40 | 87 | 0.0 | 0.0 | 0.00 | 0.00 | 0.00 | 94 | 1015.7 |
| 20260508103033 | 40 | 87 | 0.0 | 0.0 | 0.00 | 0.00 | 0.00 | 95 | 1015.8 |
| 20260508103015 | 40 | 0.0 | 0.0 | 0.00 | 0.00 | 0.00 | 95 | 1016.8 | |
| 20260508101530 | 40 | 86 | 0.0 | 0.0 | 0.00 | 0.00 | 0.00 | 94 | 1015.6 |
| 20260508100024 | 41 | 86 | 0.0 | 0.0 | 0.00 | 0.01 | 0.00 | 94 | 1015.4 |
| 20260508100015 | 41 | 0.0 | 0.0 | 0.00 | 0.00 | 0.00 | 94 | 1016.9 | |
| 20260508094522 | 41 | 86 | 0.0 | 0.0 | 0.00 | 0.01 | 0.00 | 94 | 1015.5 |
| 20260508093035 | 41 | 0.0 | 2.0 | 0.00 | 0.01 | 0.00 | 94 | 1016.7 | |
| 20260508093022 | 41 | 86 | 0.0 | 0.0 | 0.00 | 0.01 | 0.00 | 94 | 1015.3 |
| 20260508091533 | 41 | 86 | 0.0 | 0.0 | 0.00 | 0.01 | 0.00 | 94 | 1015.2 |
| 20260508090030 | 42 | 86 | 0.0 | 0.0 | 0.00 | 0.01 | 0.00 | 94 | 1015.2 |
| 20260508090016 | 42 | 90 | 0.0 | 2.0 | 0.00 | 0.01 | 0.00 | 94 | 1016.6 |
| 20260508084517 | 42 | 86 | 0.0 | 2.0 | 0.00 | 0.01 | 0.00 | 94 | 1015.3 |
| 20260508083015 | 42 | 90 | 0.0 | 2.0 | 0.00 | 0.01 | 0.00 | 93 | 1016.6 |
| 20260508081513 | 42 | 86 | 0.0 | 2.0 | 0.00 | 0.01 | 0.00 | 93 | 1015.4 |
| 20260508080020 | 43 | 0.0 | 0.0 | 0.00 | 0.01 | 0.00 | 93 | 1016.7 | |
| 20260508080010 | 43 | 86 | 0.0 | 0.0 | 0.00 | 0.01 | 0.00 | 93 | 1015.5 |
| 20260508074508 | 43 | 86 | 0.0 | 0.0 | 0.00 | 0.01 | 0.00 | 93 | 1015.7 |
| 20260508073015 | 43 | 0.0 | 0.0 | 0.00 | 0.01 | 0.00 | 93 | 1017.1 | |
| 20260508073008 | 43 | 86 | 0.0 | 0.0 | 0.00 | 0.01 | 0.00 | 93 | 1015.8 |
| 20260508071520 | 44 | 86 | 0.0 | 0.0 | 0.00 | 0.01 | 0.00 | 93 | 1015.8 |
| 20260508070055 | 44 | 0.0 | 0.0 | 0.00 | 0.01 | 0.00 | 93 | 1017.2 | |
| 20260508070004 | 44 | 86 | 0.0 | 0.0 | 0.00 | 0.01 | 0.00 | 93 | 1016.0 |
| 20260508064502 | 44 | 86 | 0.0 | 0.0 | 0.00 | 0.01 | 0.00 | 93 | 1016.0 |
| 20260508063015 | 44 | 0.0 | 0.0 | 0.00 | 0.01 | 0.00 | 93 | 1017.3 | |
| 20260508063002 | 44 | 86 | 0.0 | 0.0 | 0.00 | 0.01 | 0.00 | 93 | 1016.1 |
| 20260508061604 | 44 | 86 | 0.0 | 0.0 | 0.00 | 0.01 | 0.00 | 92 | 1016.1 |
| 20260508060100 | 44 | 86 | 0.0 | 0.0 | 0.00 | 0.01 | 0.00 | 92 | 1016.2 |
| 20260508060015 | 44 | 0.0 | 0.0 | 0.00 | 0.01 | 0.00 | 92 | 1017.5 | |
| 20260508054557 | 45 | 85 | 0.0 | 0.0 | 0.00 | 0.01 | 0.00 | 92 | 1016.3 |